sensor_id;sensor_type;location;lat;lon;timestamp;P1;durP1;ratioP1;P2;durP2;ratioP2
8861;SDS011;4799;50.996;4.754;2022-10-17T00:00:46;15.30;;;13.90;;
8861;SDS011;4799;50.996;4.754;2022-10-17T00:03:12;15.63;;;14.23;;
8861;SDS011;4799;50.996;4.754;2022-10-17T00:05:39;15.97;;;14.37;;
8861;SDS011;4799;50.996;4.754;2022-10-17T00:08:06;16.90;;;15.27;;
8861;SDS011;4799;50.996;4.754;2022-10-17T00:10:33;16.20;;;14.43;;
8861;SDS011;4799;50.996;4.754;2022-10-17T00:12:59;16.47;;;14.87;;
8861;SDS011;4799;50.996;4.754;2022-10-17T00:15:24;16.70;;;15.10;;
8861;SDS011;4799;50.996;4.754;2022-10-17T00:17:50;15.77;;;14.17;;
8861;SDS011;4799;50.996;4.754;2022-10-17T00:20:16;19.37;;;16.03;;
8861;SDS011;4799;50.996;4.754;2022-10-17T00:22:42;18.00;;;15.00;;
8861;SDS011;4799;50.996;4.754;2022-10-17T00:25:08;18.83;;;16.10;;
8861;SDS011;4799;50.996;4.754;2022-10-17T00:27:34;16.83;;;15.27;;
8861;SDS011;4799;50.996;4.754;2022-10-17T00:30:01;16.23;;;14.63;;
8861;SDS011;4799;50.996;4.754;2022-10-17T00:32:27;17.20;;;15.47;;
8861;SDS011;4799;50.996;4.754;2022-10-17T00:34:53;16.27;;;14.57;;
8861;SDS011;4799;50.996;4.754;2022-10-17T00:37:18;17.97;;;16.27;;
8861;SDS011;4799;50.996;4.754;2022-10-17T00:39:44;16.53;;;14.90;;
8861;SDS011;4799;50.996;4.754;2022-10-17T00:42:11;15.20;;;13.60;;
8861;SDS011;4799;50.996;4.754;2022-10-17T00:47:10;16.80;;;15.10;;
8861;SDS011;4799;50.996;4.754;2022-10-17T00:49:41;16.50;;;14.03;;
8861;SDS011;4799;50.996;4.754;2022-10-17T00:52:07;13.17;;;12.00;;
8861;SDS011;4799;50.996;4.754;2022-10-17T00:54:38;16.93;;;15.23;;
8861;SDS011;4799;50.996;4.754;2022-10-17T00:57:08;16.17;;;14.57;;
8861;SDS011;4799;50.996;4.754;2022-10-17T00:59:35;18.23;;;16.20;;
8861;SDS011;4799;50.996;4.754;2022-10-17T01:02:05;17.47;;;15.73;;
8861;SDS011;4799;50.996;4.754;2022-10-17T01:04:32;18.43;;;16.63;;
8861;SDS011;4799;50.996;4.754;2022-10-17T01:06:59;21.40;;;15.60;;
8861;SDS011;4799;50.996;4.754;2022-10-17T01:09:25;15.17;;;13.77;;
8861;SDS011;4799;50.996;4.754;2022-10-17T01:11:55;18.90;;;16.67;;
8861;SDS011;4799;50.996;4.754;2022-10-17T01:17:29;17.57;;;15.80;;
8861;SDS011;4799;50.996;4.754;2022-10-17T01:20:28;18.10;;;16.20;;
8861;SDS011;4799;50.996;4.754;2022-10-17T01:31:44;17.10;;;15.30;;
8861;SDS011;4799;50.996;4.754;2022-10-17T01:34:19;16.13;;;14.60;;
8861;SDS011;4799;50.996;4.754;2022-10-17T01:42:19;17.63;;;15.70;;
8861;SDS011;4799;50.996;4.754;2022-10-17T01:45:17;19.73;;;16.27;;
8861;SDS011;4799;50.996;4.754;2022-10-17T01:47:52;16.27;;;14.57;;
8861;SDS011;4799;50.996;4.754;2022-10-17T01:50:22;17.97;;;16.07;;
8861;SDS011;4799;50.996;4.754;2022-10-17T01:52:55;15.77;;;14.17;;
8861;SDS011;4799;50.996;4.754;2022-10-17T01:55:27;17.13;;;15.37;;
8861;SDS011;4799;50.996;4.754;2022-10-17T01:58:08;17.47;;;15.70;;
8861;SDS011;4799;50.996;4.754;2022-10-17T02:00:37;15.97;;;14.47;;
8861;SDS011;4799;50.996;4.754;2022-10-17T02:03:06;15.50;;;14.00;;
8861;SDS011;4799;50.996;4.754;2022-10-17T02:05:38;16.47;;;14.73;;
8861;SDS011;4799;50.996;4.754;2022-10-17T02:08:05;17.67;;;14.70;;
8861;SDS011;4799;50.996;4.754;2022-10-17T02:13:18;16.07;;;14.47;;
8861;SDS011;4799;50.996;4.754;2022-10-17T02:16:01;14.43;;;13.07;;
8861;SDS011;4799;50.996;4.754;2022-10-17T02:21:44;15.67;;;14.07;;
8861;SDS011;4799;50.996;4.754;2022-10-17T02:29:24;14.07;;;12.67;;
8861;SDS011;4799;50.996;4.754;2022-10-17T02:34:34;14.93;;;13.43;;
8861;SDS011;4799;50.996;4.754;2022-10-17T02:37:06;14.53;;;13.13;;
8861;SDS011;4799;50.996;4.754;2022-10-17T02:39:34;14.23;;;12.73;;
8861;SDS011;4799;50.996;4.754;2022-10-17T02:42:02;13.60;;;12.27;;
8861;SDS011;4799;50.996;4.754;2022-10-17T02:44:32;14.47;;;12.43;;
8861;SDS011;4799;50.996;4.754;2022-10-17T02:47:10;13.30;;;11.93;;
8861;SDS011;4799;50.996;4.754;2022-10-17T02:49:51;14.33;;;12.83;;
8861;SDS011;4799;50.996;4.754;2022-10-17T02:54:53;13.20;;;11.90;;
8861;SDS011;4799;50.996;4.754;2022-10-17T02:57:38;13.03;;;11.93;;
8861;SDS011;4799;50.996;4.754;2022-10-17T03:00:07;12.50;;;11.40;;
8861;SDS011;4799;50.996;4.754;2022-10-17T03:02:43;11.70;;;10.70;;
8861;SDS011;4799;50.996;4.754;2022-10-17T03:05:14;13.07;;;11.60;;
8861;SDS011;4799;50.996;4.754;2022-10-17T03:07:43;13.70;;;12.07;;
8861;SDS011;4799;50.996;4.754;2022-10-17T03:10:09;11.80;;;10.60;;
8861;SDS011;4799;50.996;4.754;2022-10-17T03:12:35;11.73;;;10.63;;
8861;SDS011;4799;50.996;4.754;2022-10-17T03:15:01;12.27;;;10.10;;
8861;SDS011;4799;50.996;4.754;2022-10-17T03:17:26;11.57;;;10.47;;
8861;SDS011;4799;50.996;4.754;2022-10-17T03:19:52;11.00;;;9.90;;
8861;SDS011;4799;50.996;4.754;2022-10-17T03:22:18;11.30;;;10.10;;
8861;SDS011;4799;50.996;4.754;2022-10-17T03:24:43;10.73;;;9.73;;
8861;SDS011;4799;50.996;4.754;2022-10-17T03:27:09;11.13;;;9.97;;
8861;SDS011;4799;50.996;4.754;2022-10-17T03:29:35;9.83;;;9.13;;
8861;SDS011;4799;50.996;4.754;2022-10-17T03:32:00;9.73;;;8.83;;
8861;SDS011;4799;50.996;4.754;2022-10-17T03:34:26;11.27;;;8.83;;
8861;SDS011;4799;50.996;4.754;2022-10-17T03:36:52;9.87;;;8.97;;
8861;SDS011;4799;50.996;4.754;2022-10-17T03:39:17;9.17;;;8.17;;
8861;SDS011;4799;50.996;4.754;2022-10-17T03:41:43;9.80;;;8.90;;
8861;SDS011;4799;50.996;4.754;2022-10-17T03:44:09;9.40;;;8.33;;
8861;SDS011;4799;50.996;4.754;2022-10-17T03:46:34;9.00;;;8.10;;
8861;SDS011;4799;50.996;4.754;2022-10-17T03:49:00;9.30;;;8.40;;
8861;SDS011;4799;50.996;4.754;2022-10-17T03:51:26;8.83;;;8.00;;
8861;SDS011;4799;50.996;4.754;2022-10-17T03:53:51;8.83;;;7.90;;
8861;SDS011;4799;50.996;4.754;2022-10-17T03:56:19;8.57;;;7.80;;
8861;SDS011;4799;50.996;4.754;2022-10-17T03:58:46;9.53;;;8.17;;
8861;SDS011;4799;50.996;4.754;2022-10-17T04:01:12;8.33;;;7.60;;
8861;SDS011;4799;50.996;4.754;2022-10-17T04:03:39;8.57;;;7.53;;
8861;SDS011;4799;50.996;4.754;2022-10-17T04:06:05;8.97;;;7.70;;
8861;SDS011;4799;50.996;4.754;2022-10-17T04:08:32;10.17;;;7.67;;
8861;SDS011;4799;50.996;4.754;2022-10-17T04:10:58;9.10;;;8.20;;
8861;SDS011;4799;50.996;4.754;2022-10-17T04:13:28;8.80;;;8.00;;
8861;SDS011;4799;50.996;4.754;2022-10-17T04:15:58;9.23;;;8.40;;
8861;SDS011;4799;50.996;4.754;2022-10-17T04:18:35;9.93;;;7.60;;
8861;SDS011;4799;50.996;4.754;2022-10-17T04:21:01;9.10;;;8.30;;
8861;SDS011;4799;50.996;4.754;2022-10-17T04:23:27;9.10;;;8.20;;
8861;SDS011;4799;50.996;4.754;2022-10-17T04:25:56;8.93;;;7.87;;
8861;SDS011;4799;50.996;4.754;2022-10-17T04:28:23;8.80;;;8.03;;
8861;SDS011;4799;50.996;4.754;2022-10-17T04:33:23;8.30;;;7.47;;
8861;SDS011;4799;50.996;4.754;2022-10-17T04:35:59;8.07;;;7.33;;
8861;SDS011;4799;50.996;4.754;2022-10-17T04:38:26;8.57;;;7.73;;
8861;SDS011;4799;50.996;4.754;2022-10-17T04:40:53;8.80;;;8.00;;
8861;SDS011;4799;50.996;4.754;2022-10-17T04:43:21;8.83;;;8.03;;
8861;SDS011;4799;50.996;4.754;2022-10-17T04:45:46;8.10;;;7.30;;
8861;SDS011;4799;50.996;4.754;2022-10-17T04:48:12;8.60;;;7.77;;
8861;SDS011;4799;50.996;4.754;2022-10-17T04:50:38;11.20;;;7.60;;
8861;SDS011;4799;50.996;4.754;2022-10-17T04:53:03;8.47;;;7.70;;
8861;SDS011;4799;50.996;4.754;2022-10-17T04:55:29;9.70;;;7.63;;
8861;SDS011;4799;50.996;4.754;2022-10-17T04:57:55;8.47;;;7.70;;
8861;SDS011;4799;50.996;4.754;2022-10-17T05:00:20;8.60;;;7.70;;
8861;SDS011;4799;50.996;4.754;2022-10-17T05:02:46;9.40;;;7.70;;
8861;SDS011;4799;50.996;4.754;2022-10-17T05:05:12;8.63;;;7.80;;
8861;SDS011;4799;50.996;4.754;2022-10-17T05:07:40;8.07;;;7.37;;
8861;SDS011;4799;50.996;4.754;2022-10-17T05:10:06;10.17;;;7.57;;
8861;SDS011;4799;50.996;4.754;2022-10-17T05:12:32;8.50;;;7.50;;
8861;SDS011;4799;50.996;4.754;2022-10-17T05:14:58;8.20;;;7.50;;
8861;SDS011;4799;50.996;4.754;2022-10-17T05:17:24;8.87;;;7.37;;
8861;SDS011;4799;50.996;4.754;2022-10-17T05:19:49;8.30;;;7.37;;
8861;SDS011;4799;50.996;4.754;2022-10-17T05:22:15;10.23;;;7.10;;
8861;SDS011;4799;50.996;4.754;2022-10-17T05:24:41;7.27;;;6.67;;
8861;SDS011;4799;50.996;4.754;2022-10-17T05:27:06;9.97;;;6.57;;
8861;SDS011;4799;50.996;4.754;2022-10-17T05:29:33;7.87;;;7.13;;
8861;SDS011;4799;50.996;4.754;2022-10-17T05:31:58;8.03;;;6.90;;
8861;SDS011;4799;50.996;4.754;2022-10-17T05:34:24;8.13;;;7.07;;
8861;SDS011;4799;50.996;4.754;2022-10-17T05:36:50;9.40;;;6.97;;
8861;SDS011;4799;50.996;4.754;2022-10-17T05:39:15;7.83;;;6.93;;
8861;SDS011;4799;50.996;4.754;2022-10-17T05:41:44;7.80;;;7.00;;
8861;SDS011;4799;50.996;4.754;2022-10-17T05:44:10;7.50;;;6.70;;
8861;SDS011;4799;50.996;4.754;2022-10-17T05:46:36;7.30;;;6.60;;
8861;SDS011;4799;50.996;4.754;2022-10-17T05:49:02;8.23;;;7.30;;
8861;SDS011;4799;50.996;4.754;2022-10-17T05:51:27;7.07;;;6.53;;
8861;SDS011;4799;50.996;4.754;2022-10-17T05:53:53;7.47;;;6.73;;
8861;SDS011;4799;50.996;4.754;2022-10-17T05:56:19;6.87;;;6.27;;
8861;SDS011;4799;50.996;4.754;2022-10-17T05:58:44;7.30;;;6.60;;
8861;SDS011;4799;50.996;4.754;2022-10-17T06:01:11;8.50;;;6.80;;
8861;SDS011;4799;50.996;4.754;2022-10-17T06:03:37;7.50;;;6.80;;
8861;SDS011;4799;50.996;4.754;2022-10-17T06:06:09;7.17;;;6.47;;
8861;SDS011;4799;50.996;4.754;2022-10-17T06:08:36;7.27;;;6.20;;
8861;SDS011;4799;50.996;4.754;2022-10-17T06:11:02;8.50;;;6.17;;
8861;SDS011;4799;50.996;4.754;2022-10-17T06:13:28;7.37;;;6.23;;
8861;SDS011;4799;50.996;4.754;2022-10-17T06:15:54;6.83;;;6.13;;
8861;SDS011;4799;50.996;4.754;2022-10-17T06:18:19;7.57;;;6.70;;
8861;SDS011;4799;50.996;4.754;2022-10-17T06:20:45;7.07;;;6.17;;
8861;SDS011;4799;50.996;4.754;2022-10-17T06:23:11;7.97;;;6.00;;
8861;SDS011;4799;50.996;4.754;2022-10-17T06:25:37;6.90;;;6.23;;
8861;SDS011;4799;50.996;4.754;2022-10-17T06:28:03;7.83;;;5.73;;
8861;SDS011;4799;50.996;4.754;2022-10-17T06:30:29;9.13;;;5.97;;
8861;SDS011;4799;50.996;4.754;2022-10-17T06:32:55;8.33;;;6.43;;
8861;SDS011;4799;50.996;4.754;2022-10-17T06:35:21;6.53;;;5.87;;
8861;SDS011;4799;50.996;4.754;2022-10-17T06:37:46;6.90;;;5.60;;
8861;SDS011;4799;50.996;4.754;2022-10-17T06:40:12;7.63;;;5.50;;
8861;SDS011;4799;50.996;4.754;2022-10-17T06:42:40;8.13;;;5.60;;
8861;SDS011;4799;50.996;4.754;2022-10-17T06:45:07;6.47;;;5.60;;
8861;SDS011;4799;50.996;4.754;2022-10-17T06:47:34;6.23;;;5.30;;
8861;SDS011;4799;50.996;4.754;2022-10-17T06:50:00;6.93;;;6.03;;
8861;SDS011;4799;50.996;4.754;2022-10-17T06:52:25;6.57;;;5.33;;
8861;SDS011;4799;50.996;4.754;2022-10-17T06:54:51;6.17;;;5.57;;
8861;SDS011;4799;50.996;4.754;2022-10-17T06:57:17;5.73;;;5.17;;
8861;SDS011;4799;50.996;4.754;2022-10-17T06:59:43;7.10;;;4.90;;
8861;SDS011;4799;50.996;4.754;2022-10-17T07:02:09;6.37;;;5.10;;
8861;SDS011;4799;50.996;4.754;2022-10-17T07:04:35;5.27;;;4.70;;
8861;SDS011;4799;50.996;4.754;2022-10-17T07:07:01;5.40;;;4.73;;
8861;SDS011;4799;50.996;4.754;2022-10-17T07:09:28;7.17;;;5.13;;
8861;SDS011;4799;50.996;4.754;2022-10-17T07:11:55;7.73;;;4.73;;
8861;SDS011;4799;50.996;4.754;2022-10-17T07:14:21;6.17;;;4.87;;
8861;SDS011;4799;50.996;4.754;2022-10-17T07:16:46;8.30;;;4.70;;
8861;SDS011;4799;50.996;4.754;2022-10-17T07:19:12;5.73;;;4.27;;
8861;SDS011;4799;50.996;4.754;2022-10-17T07:21:38;7.03;;;5.17;;
8861;SDS011;4799;50.996;4.754;2022-10-17T07:24:04;4.73;;;4.30;;
8861;SDS011;4799;50.996;4.754;2022-10-17T07:26:31;7.03;;;4.53;;
8861;SDS011;4799;50.996;4.754;2022-10-17T07:28:57;6.07;;;4.30;;
8861;SDS011;4799;50.996;4.754;2022-10-17T07:31:23;7.50;;;4.40;;
8861;SDS011;4799;50.996;4.754;2022-10-17T07:33:49;5.47;;;4.60;;
8861;SDS011;4799;50.996;4.754;2022-10-17T07:36:15;6.67;;;3.80;;
8861;SDS011;4799;50.996;4.754;2022-10-17T07:38:42;5.17;;;4.50;;
8861;SDS011;4799;50.996;4.754;2022-10-17T07:41:08;7.50;;;4.50;;
8861;SDS011;4799;50.996;4.754;2022-10-17T07:43:35;8.00;;;4.50;;
8861;SDS011;4799;50.996;4.754;2022-10-17T07:46:01;6.77;;;4.20;;
8861;SDS011;4799;50.996;4.754;2022-10-17T07:48:29;4.60;;;4.20;;
8861;SDS011;4799;50.996;4.754;2022-10-17T07:50:55;6.00;;;4.13;;
8861;SDS011;4799;50.996;4.754;2022-10-17T07:53:20;6.70;;;4.70;;
8861;SDS011;4799;50.996;4.754;2022-10-17T07:55:46;5.33;;;4.40;;
8861;SDS011;4799;50.996;4.754;2022-10-17T07:58:13;5.80;;;4.10;;
8861;SDS011;4799;50.996;4.754;2022-10-17T08:00:40;7.67;;;4.43;;
8861;SDS011;4799;50.996;4.754;2022-10-17T08:03:06;6.93;;;4.37;;
8861;SDS011;4799;50.996;4.754;2022-10-17T08:05:32;6.43;;;4.30;;
8861;SDS011;4799;50.996;4.754;2022-10-17T08:07:58;9.37;;;4.17;;
8861;SDS011;4799;50.996;4.754;2022-10-17T08:10:24;4.33;;;3.87;;
8861;SDS011;4799;50.996;4.754;2022-10-17T08:12:55;7.40;;;4.00;;
8861;SDS011;4799;50.996;4.754;2022-10-17T08:15:22;3.80;;;3.50;;
8861;SDS011;4799;50.996;4.754;2022-10-17T08:17:51;8.03;;;3.90;;
8861;SDS011;4799;50.996;4.754;2022-10-17T08:20:19;4.47;;;3.70;;
8861;SDS011;4799;50.996;4.754;2022-10-17T08:22:50;6.40;;;3.70;;
8861;SDS011;4799;50.996;4.754;2022-10-17T08:25:17;4.20;;;3.80;;
8861;SDS011;4799;50.996;4.754;2022-10-17T08:27:42;4.93;;;3.93;;
8861;SDS011;4799;50.996;4.754;2022-10-17T08:30:08;5.47;;;4.20;;
8861;SDS011;4799;50.996;4.754;2022-10-17T08:32:34;4.23;;;3.83;;
8861;SDS011;4799;50.996;4.754;2022-10-17T08:35:00;6.37;;;4.20;;
8861;SDS011;4799;50.996;4.754;2022-10-17T08:37:26;5.43;;;4.53;;
8861;SDS011;4799;50.996;4.754;2022-10-17T08:39:52;4.70;;;4.17;;
8861;SDS011;4799;50.996;4.754;2022-10-17T08:45:20;9.57;;;6.30;;
8861;SDS011;4799;50.996;4.754;2022-10-17T08:47:59;6.93;;;6.00;;
8861;SDS011;4799;50.996;4.754;2022-10-17T08:50:31;9.07;;;6.80;;
8861;SDS011;4799;50.996;4.754;2022-10-17T08:55:47;7.20;;;6.50;;
8861;SDS011;4799;50.996;4.754;2022-10-17T08:58:16;10.13;;;7.03;;
8861;SDS011;4799;50.996;4.754;2022-10-17T09:03:29;9.17;;;8.23;;
8861;SDS011;4799;50.996;4.754;2022-10-17T09:25:14;9.70;;;8.70;;
8861;SDS011;4799;50.996;4.754;2022-10-17T09:27:58;9.47;;;8.47;;
8861;SDS011;4799;50.996;4.754;2022-10-17T09:30:46;9.47;;;8.37;;
8861;SDS011;4799;50.996;4.754;2022-10-17T09:33:19;10.43;;;8.83;;
8861;SDS011;4799;50.996;4.754;2022-10-17T09:35:48;10.20;;;8.53;;
8861;SDS011;4799;50.996;4.754;2022-10-17T09:38:19;9.57;;;8.67;;
8861;SDS011;4799;50.996;4.754;2022-10-17T09:40:57;10.67;;;8.77;;
8861;SDS011;4799;50.996;4.754;2022-10-17T09:43:25;9.53;;;8.70;;
8861;SDS011;4799;50.996;4.754;2022-10-17T09:48:31;10.40;;;8.73;;
8861;SDS011;4799;50.996;4.754;2022-10-17T09:51:04;10.63;;;9.00;;
8861;SDS011;4799;50.996;4.754;2022-10-17T09:53:38;9.10;;;8.20;;
8861;SDS011;4799;50.996;4.754;2022-10-17T09:56:07;10.10;;;8.37;;
8861;SDS011;4799;50.996;4.754;2022-10-17T09:58:39;9.77;;;8.77;;
8861;SDS011;4799;50.996;4.754;2022-10-17T10:01:25;8.63;;;7.87;;
8861;SDS011;4799;50.996;4.754;2022-10-17T10:04:10;10.37;;;8.07;;
8861;SDS011;4799;50.996;4.754;2022-10-17T10:06:38;9.20;;;8.30;;
8861;SDS011;4799;50.996;4.754;2022-10-17T10:09:05;10.33;;;8.20;;
8861;SDS011;4799;50.996;4.754;2022-10-17T10:11:44;9.57;;;8.50;;
8861;SDS011;4799;50.996;4.754;2022-10-17T10:14:38;9.23;;;8.20;;
8861;SDS011;4799;50.996;4.754;2022-10-17T10:17:23;10.20;;;8.70;;
8861;SDS011;4799;50.996;4.754;2022-10-17T10:20:02;10.27;;;9.33;;
8861;SDS011;4799;50.996;4.754;2022-10-17T10:23:04;10.03;;;9.20;;
8861;SDS011;4799;50.996;4.754;2022-10-17T10:25:48;10.93;;;9.87;;
8861;SDS011;4799;50.996;4.754;2022-10-17T10:28:25;11.63;;;10.60;;
8861;SDS011;4799;50.996;4.754;2022-10-17T10:30:57;13.17;;;11.10;;
8861;SDS011;4799;50.996;4.754;2022-10-17T10:33:27;11.20;;;10.03;;
8861;SDS011;4799;50.996;4.754;2022-10-17T10:35:59;11.30;;;10.20;;
8861;SDS011;4799;50.996;4.754;2022-10-17T10:38:27;9.37;;;8.47;;
8861;SDS011;4799;50.996;4.754;2022-10-17T10:41:04;9.93;;;8.80;;
8861;SDS011;4799;50.996;4.754;2022-10-17T10:46:00;9.70;;;8.43;;
8861;SDS011;4799;50.996;4.754;2022-10-17T10:48:31;11.63;;;8.60;;
8861;SDS011;4799;50.996;4.754;2022-10-17T10:51:01;10.47;;;9.30;;
8861;SDS011;4799;50.996;4.754;2022-10-17T10:56:13;9.80;;;8.90;;
8861;SDS011;4799;50.996;4.754;2022-10-17T11:10:11;10.33;;;9.23;;
8861;SDS011;4799;50.996;4.754;2022-10-17T11:12:54;9.73;;;8.83;;
8861;SDS011;4799;50.996;4.754;2022-10-17T11:15:44;8.57;;;7.77;;
8861;SDS011;4799;50.996;4.754;2022-10-17T11:18:23;8.40;;;7.57;;
8861;SDS011;4799;50.996;4.754;2022-10-17T11:20:55;8.77;;;7.97;;
8861;SDS011;4799;50.996;4.754;2022-10-17T11:23:35;8.50;;;7.57;;
8861;SDS011;4799;50.996;4.754;2022-10-17T11:26:05;9.03;;;8.23;;
8861;SDS011;4799;50.996;4.754;2022-10-17T11:28:35;10.23;;;8.33;;
8861;SDS011;4799;50.996;4.754;2022-10-17T11:31:03;10.73;;;8.57;;
8861;SDS011;4799;50.996;4.754;2022-10-17T11:33:43;9.40;;;8.47;;
8861;SDS011;4799;50.996;4.754;2022-10-17T11:36:13;8.53;;;7.73;;
8861;SDS011;4799;50.996;4.754;2022-10-17T11:38:43;9.10;;;8.20;;
8861;SDS011;4799;50.996;4.754;2022-10-17T11:41:12;9.13;;;8.23;;
8861;SDS011;4799;50.996;4.754;2022-10-17T11:46:21;8.53;;;7.83;;
8861;SDS011;4799;50.996;4.754;2022-10-17T11:54:34;8.40;;;7.60;;
8861;SDS011;4799;50.996;4.754;2022-10-17T12:05:23;9.33;;;8.50;;
8861;SDS011;4799;50.996;4.754;2022-10-17T12:10:45;10.83;;;9.23;;
8861;SDS011;4799;50.996;4.754;2022-10-17T12:15:57;9.17;;;8.33;;
8861;SDS011;4799;50.996;4.754;2022-10-17T12:18:42;9.70;;;8.60;;
8861;SDS011;4799;50.996;4.754;2022-10-17T12:21:08;9.10;;;7.97;;
8861;SDS011;4799;50.996;4.754;2022-10-17T12:23:34;9.67;;;8.23;;
8861;SDS011;4799;50.996;4.754;2022-10-17T12:26:07;9.17;;;7.73;;
8861;SDS011;4799;50.996;4.754;2022-10-17T12:33:52;9.13;;;7.23;;
8861;SDS011;4799;50.996;4.754;2022-10-17T12:38:47;8.00;;;7.13;;
8861;SDS011;4799;50.996;4.754;2022-10-17T12:46:42;10.47;;;8.00;;
8861;SDS011;4799;50.996;4.754;2022-10-17T12:54:39;11.77;;;8.60;;
8861;SDS011;4799;50.996;4.754;2022-10-17T12:57:18;10.30;;;8.17;;
8861;SDS011;4799;50.996;4.754;2022-10-17T12:59:57;10.93;;;7.23;;
8861;SDS011;4799;50.996;4.754;2022-10-17T13:02:46;9.20;;;7.57;;
8861;SDS011;4799;50.996;4.754;2022-10-17T13:05:35;10.27;;;8.20;;
8861;SDS011;4799;50.996;4.754;2022-10-17T13:08:02;8.37;;;7.30;;
8861;SDS011;4799;50.996;4.754;2022-10-17T13:10:31;8.53;;;7.73;;
8861;SDS011;4799;50.996;4.754;2022-10-17T13:13:03;10.23;;;7.90;;
8861;SDS011;4799;50.996;4.754;2022-10-17T13:15:44;9.40;;;7.93;;
8861;SDS011;4799;50.996;4.754;2022-10-17T13:18:16;8.47;;;7.30;;
8861;SDS011;4799;50.996;4.754;2022-10-17T13:20:53;10.17;;;7.50;;
8861;SDS011;4799;50.996;4.754;2022-10-17T13:23:29;9.80;;;7.83;;
8861;SDS011;4799;50.996;4.754;2022-10-17T13:26:05;9.13;;;8.03;;
8861;SDS011;4799;50.996;4.754;2022-10-17T13:28:34;8.67;;;7.77;;
8861;SDS011;4799;50.996;4.754;2022-10-17T13:30:59;9.70;;;8.10;;
8861;SDS011;4799;50.996;4.754;2022-10-17T13:33:33;8.60;;;7.80;;
8861;SDS011;4799;50.996;4.754;2022-10-17T13:36:03;9.50;;;8.03;;
8861;SDS011;4799;50.996;4.754;2022-10-17T13:38:32;9.73;;;8.10;;
8861;SDS011;4799;50.996;4.754;2022-10-17T13:40:59;9.40;;;7.40;;
8861;SDS011;4799;50.996;4.754;2022-10-17T13:43:27;10.57;;;7.57;;
8861;SDS011;4799;50.996;4.754;2022-10-17T13:45:56;8.13;;;6.80;;
8861;SDS011;4799;50.996;4.754;2022-10-17T13:48:30;8.33;;;7.47;;
8861;SDS011;4799;50.996;4.754;2022-10-17T13:50:59;9.90;;;8.00;;
8861;SDS011;4799;50.996;4.754;2022-10-17T13:53:31;8.73;;;7.83;;
8861;SDS011;4799;50.996;4.754;2022-10-17T13:56:14;7.80;;;7.07;;
8861;SDS011;4799;50.996;4.754;2022-10-17T13:58:42;9.60;;;7.10;;
8861;SDS011;4799;50.996;4.754;2022-10-17T14:01:12;8.57;;;7.70;;
8861;SDS011;4799;50.996;4.754;2022-10-17T14:03:42;8.93;;;7.20;;
8861;SDS011;4799;50.996;4.754;2022-10-17T14:06:14;11.00;;;6.73;;
8861;SDS011;4799;50.996;4.754;2022-10-17T14:08:50;8.57;;;7.20;;
8861;SDS011;4799;50.996;4.754;2022-10-17T14:11:23;8.37;;;6.60;;
8861;SDS011;4799;50.996;4.754;2022-10-17T14:13:50;7.47;;;6.70;;
8861;SDS011;4799;50.996;4.754;2022-10-17T14:16:18;8.37;;;6.93;;
8861;SDS011;4799;50.996;4.754;2022-10-17T14:18:45;8.17;;;6.70;;
8861;SDS011;4799;50.996;4.754;2022-10-17T14:21:21;8.00;;;6.67;;
8861;SDS011;4799;50.996;4.754;2022-10-17T14:23:50;7.77;;;6.97;;
8861;SDS011;4799;50.996;4.754;2022-10-17T14:26:21;7.10;;;6.40;;
8861;SDS011;4799;50.996;4.754;2022-10-17T14:29:14;8.97;;;5.77;;
8861;SDS011;4799;50.996;4.754;2022-10-17T14:31:45;7.67;;;6.00;;
8861;SDS011;4799;50.996;4.754;2022-10-17T14:34:26;8.90;;;6.90;;
8861;SDS011;4799;50.996;4.754;2022-10-17T14:36:55;7.43;;;6.80;;
8861;SDS011;4799;50.996;4.754;2022-10-17T14:39:22;8.20;;;7.00;;
8861;SDS011;4799;50.996;4.754;2022-10-17T14:41:50;7.90;;;6.43;;
8861;SDS011;4799;50.996;4.754;2022-10-17T14:44:21;6.73;;;6.00;;
8861;SDS011;4799;50.996;4.754;2022-10-17T14:46:53;6.77;;;6.07;;
8861;SDS011;4799;50.996;4.754;2022-10-17T14:49:33;7.40;;;5.23;;
8861;SDS011;4799;50.996;4.754;2022-10-17T14:52:35;5.90;;;5.23;;
8861;SDS011;4799;50.996;4.754;2022-10-17T14:54:55;7.07;;;5.50;;
8861;SDS011;4799;50.996;4.754;2022-10-17T14:57:23;7.10;;;5.70;;
8861;SDS011;4799;50.996;4.754;2022-10-17T14:59:58;6.83;;;6.13;;
8861;SDS011;4799;50.996;4.754;2022-10-17T15:02:24;7.33;;;6.10;;
8861;SDS011;4799;50.996;4.754;2022-10-17T15:04:52;7.50;;;5.80;;
8861;SDS011;4799;50.996;4.754;2022-10-17T15:07:18;7.60;;;6.07;;
8861;SDS011;4799;50.996;4.754;2022-10-17T15:09:46;9.33;;;6.30;;
8861;SDS011;4799;50.996;4.754;2022-10-17T15:12:15;6.80;;;6.03;;
8861;SDS011;4799;50.996;4.754;2022-10-17T15:14:45;9.60;;;6.70;;
8861;SDS011;4799;50.996;4.754;2022-10-17T15:17:23;7.47;;;6.53;;
8861;SDS011;4799;50.996;4.754;2022-10-17T15:19:49;8.13;;;7.33;;
8861;SDS011;4799;50.996;4.754;2022-10-17T15:22:14;8.43;;;7.23;;
8861;SDS011;4799;50.996;4.754;2022-10-17T15:24:42;8.47;;;7.17;;
8861;SDS011;4799;50.996;4.754;2022-10-17T15:27:23;9.23;;;6.70;;
8861;SDS011;4799;50.996;4.754;2022-10-17T15:29:50;9.33;;;5.83;;
8861;SDS011;4799;50.996;4.754;2022-10-17T15:32:17;7.07;;;6.47;;
8861;SDS011;4799;50.996;4.754;2022-10-17T15:34:43;7.50;;;6.10;;
8861;SDS011;4799;50.996;4.754;2022-10-17T15:37:42;9.47;;;6.23;;
8861;SDS011;4799;50.996;4.754;2022-10-17T15:40:01;10.87;;;6.00;;
8861;SDS011;4799;50.996;4.754;2022-10-17T15:42:27;6.87;;;5.97;;
8861;SDS011;4799;50.996;4.754;2022-10-17T15:44:54;5.90;;;5.27;;
8861;SDS011;4799;50.996;4.754;2022-10-17T15:47:22;6.17;;;5.57;;
8861;SDS011;4799;50.996;4.754;2022-10-17T15:49:53;6.63;;;5.40;;
8861;SDS011;4799;50.996;4.754;2022-10-17T15:52:19;6.07;;;5.47;;
8861;SDS011;4799;50.996;4.754;2022-10-17T15:54:45;8.43;;;5.90;;
8861;SDS011;4799;50.996;4.754;2022-10-17T15:57:15;9.03;;;6.20;;
8861;SDS011;4799;50.996;4.754;2022-10-17T15:59:45;6.00;;;5.40;;
8861;SDS011;4799;50.996;4.754;2022-10-17T16:02:13;6.63;;;6.03;;
8861;SDS011;4799;50.996;4.754;2022-10-17T16:04:41;7.03;;;5.60;;
8861;SDS011;4799;50.996;4.754;2022-10-17T16:07:07;8.83;;;5.70;;
8861;SDS011;4799;50.996;4.754;2022-10-17T16:09:34;10.17;;;5.83;;
8861;SDS011;4799;50.996;4.754;2022-10-17T16:12:03;7.60;;;5.53;;
8861;SDS011;4799;50.996;4.754;2022-10-17T16:14:30;6.67;;;5.33;;
8861;SDS011;4799;50.996;4.754;2022-10-17T16:16:59;6.67;;;5.93;;
8861;SDS011;4799;50.996;4.754;2022-10-17T16:19:25;7.00;;;6.30;;
8861;SDS011;4799;50.996;4.754;2022-10-17T16:21:54;7.10;;;6.30;;
8861;SDS011;4799;50.996;4.754;2022-10-17T16:24:25;5.77;;;5.17;;
8861;SDS011;4799;50.996;4.754;2022-10-17T16:26:51;7.27;;;6.20;;
8861;SDS011;4799;50.996;4.754;2022-10-17T16:29:16;5.93;;;5.43;;
8861;SDS011;4799;50.996;4.754;2022-10-17T16:31:43;6.80;;;5.70;;
8861;SDS011;4799;50.996;4.754;2022-10-17T16:34:10;6.63;;;5.90;;
8861;SDS011;4799;50.996;4.754;2022-10-17T16:36:38;6.93;;;6.07;;
8861;SDS011;4799;50.996;4.754;2022-10-17T16:39:04;6.30;;;5.80;;
8861;SDS011;4799;50.996;4.754;2022-10-17T16:41:31;6.97;;;6.27;;
8861;SDS011;4799;50.996;4.754;2022-10-17T16:44:06;7.60;;;6.80;;
8861;SDS011;4799;50.996;4.754;2022-10-17T16:46:34;8.20;;;7.50;;
8861;SDS011;4799;50.996;4.754;2022-10-17T16:49:02;10.77;;;8.20;;
8861;SDS011;4799;50.996;4.754;2022-10-17T16:51:29;9.27;;;7.70;;
8861;SDS011;4799;50.996;4.754;2022-10-17T16:53:55;10.00;;;8.57;;
8861;SDS011;4799;50.996;4.754;2022-10-17T16:56:24;11.73;;;9.70;;
8861;SDS011;4799;50.996;4.754;2022-10-17T16:58:54;8.70;;;7.90;;
8861;SDS011;4799;50.996;4.754;2022-10-17T17:01:21;9.47;;;7.70;;
8861;SDS011;4799;50.996;4.754;2022-10-17T17:03:48;9.27;;;8.13;;
8861;SDS011;4799;50.996;4.754;2022-10-17T17:06:22;10.13;;;9.23;;
8861;SDS011;4799;50.996;4.754;2022-10-17T17:08:52;10.07;;;8.80;;
8861;SDS011;4799;50.996;4.754;2022-10-17T17:11:19;10.57;;;9.47;;
8861;SDS011;4799;50.996;4.754;2022-10-17T17:13:46;11.30;;;10.13;;
8861;SDS011;4799;50.996;4.754;2022-10-17T17:16:13;14.50;;;13.03;;
8861;SDS011;4799;50.996;4.754;2022-10-17T17:18:41;12.13;;;10.67;;
8861;SDS011;4799;50.996;4.754;2022-10-17T17:21:08;11.23;;;9.97;;
8861;SDS011;4799;50.996;4.754;2022-10-17T17:23:35;12.07;;;10.50;;
8861;SDS011;4799;50.996;4.754;2022-10-17T17:26:10;11.67;;;10.60;;
8861;SDS011;4799;50.996;4.754;2022-10-17T17:28:37;12.80;;;11.50;;